createdAt,value
2018-12-17T00:00:02.995Z,0
2018-12-17T00:01:13.066Z,0
2018-12-17T00:02:23.116Z,0
2018-12-17T00:03:32.941Z,0
2018-12-17T00:04:42.984Z,0
2018-12-17T00:05:53.036Z,0
2018-12-17T00:07:03.101Z,0
2018-12-17T00:08:13.260Z,0
2018-12-17T00:09:23.302Z,0
2018-12-17T00:10:34.277Z,0
2018-12-17T00:11:44.435Z,0
2018-12-17T00:12:54.467Z,0
2018-12-17T00:14:04.537Z,0
2018-12-17T00:15:14.626Z,0
2018-12-17T00:16:24.685Z,0
2018-12-17T00:17:34.757Z,0
2018-12-17T00:18:44.560Z,0
2018-12-17T00:19:54.633Z,0
2018-12-17T00:21:04.413Z,0
2018-12-17T00:22:14.442Z,0
2018-12-17T00:23:24.484Z,0
2018-12-17T00:24:34.593Z,0
2018-12-17T00:25:44.648Z,0
2018-12-17T00:26:54.716Z,0
2018-12-17T00:28:10.692Z,0
2018-12-17T00:29:20.755Z,0
2018-12-17T00:30:30.908Z,0
2018-12-17T00:31:40.944Z,0
2018-12-17T00:32:51.009Z,0
2018-12-17T00:34:01.367Z,0
2018-12-17T00:35:11.427Z,0
2018-12-17T00:36:21.484Z,0
2018-12-17T00:37:31.286Z,0
2018-12-17T00:38:41.118Z,0
2018-12-17T00:39:51.188Z,0
2018-12-17T00:41:01.386Z,0
2018-12-17T00:42:11.448Z,0
2018-12-17T00:43:21.501Z,0
2018-12-17T00:44:31.572Z,0
2018-12-17T00:45:41.629Z,0
2018-12-17T00:46:51.680Z,0
2018-12-17T00:48:01.764Z,0
2018-12-17T00:49:11.822Z,0
2018-12-17T00:50:21.876Z,0
2018-12-17T00:51:31.922Z,0
2018-12-17T00:52:41.977Z,0
2018-12-17T00:53:52.024Z,0
2018-12-17T00:55:02.063Z,0
2018-12-17T00:56:12.118Z,0
2018-12-17T00:57:22.171Z,0
2018-12-17T00:58:31.958Z,0
2018-12-17T00:59:42.004Z,0
2018-12-17T01:00:52.048Z,0
2018-12-17T01:02:02.137Z,0
2018-12-17T01:03:12.297Z,0
2018-12-17T01:04:22.084Z,0
2018-12-17T01:05:31.886Z,0
2018-12-17T01:06:41.932Z,0
2018-12-17T01:07:51.989Z,0
2018-12-17T01:09:02.044Z,0
2018-12-17T01:10:12.087Z,0
2018-12-17T01:11:22.129Z,0
2018-12-17T01:12:32.179Z,0
2018-12-17T01:13:42.229Z,0
2018-12-17T01:14:52.272Z,0
2018-12-17T01:16:02.309Z,0
2018-12-17T01:17:12.155Z,0
2018-12-17T01:18:22.222Z,0
2018-12-17T01:19:32.017Z,0
2018-12-17T01:20:41.565Z,0
2018-12-17T01:21:51.615Z,0
2018-12-17T01:23:01.718Z,0
2018-12-17T01:24:11.763Z,0
2018-12-17T01:25:21.802Z,0
2018-12-17T01:26:31.846Z,0
2018-12-17T01:27:41.901Z,0
2018-12-17T01:28:51.941Z,0
2018-12-17T01:30:02.587Z,0
2018-12-17T01:31:12.109Z,0
2018-12-17T01:32:21.979Z,0
2018-12-17T01:33:32.013Z,0
2018-12-17T01:34:41.878Z,0
2018-12-17T01:35:51.661Z,0
2018-12-17T01:37:01.774Z,0
2018-12-17T01:38:11.557Z,0
2018-12-17T01:39:21.615Z,0
2018-12-17T01:40:31.469Z,0
2018-12-17T01:41:41.511Z,0
2018-12-17T01:42:51.302Z,0
2018-12-17T01:44:01.109Z,0
2018-12-17T01:45:10.991Z,0
2018-12-17T01:46:21.125Z,0
2018-12-17T01:47:31.163Z,0
2018-12-17T01:48:40.954Z,0
2018-12-17T01:49:51.003Z,0
2018-12-17T01:51:00.539Z,0
2018-12-17T01:52:10.357Z,0
2018-12-17T01:53:20.405Z,0
2018-12-17T01:54:30.456Z,0
2018-12-17T01:55:40.508Z,0
2018-12-17T01:56:50.623Z,0
2018-12-17T01:58:00.684Z,0
2018-12-17T01:59:10.491Z,0
2018-12-17T02:00:20.537Z,0
2018-12-17T02:01:30.585Z,0
2018-12-17T02:02:40.388Z,0
2018-12-17T02:03:50.729Z,0
2018-12-17T02:05:00.776Z,0
2018-12-17T02:06:10.826Z,0
2018-12-17T02:07:22.527Z,0
2018-12-17T02:08:32.085Z,0
2018-12-17T02:09:42.136Z,0
2018-12-17T02:10:52.018Z,0
2018-12-17T02:12:02.090Z,0
2018-12-17T02:13:12.162Z,0
2018-12-17T02:14:21.952Z,0
2018-12-17T02:15:31.999Z,0
2018-12-17T02:16:42.037Z,0
2018-12-17T02:17:51.569Z,0
2018-12-17T02:19:01.604Z,0
2018-12-17T02:20:11.647Z,0
2018-12-17T02:21:21.765Z,0
2018-12-17T02:22:31.827Z,0
2018-12-17T02:23:41.868Z,0
2018-12-17T02:24:51.672Z,0
2018-12-17T02:26:01.195Z,0
2018-12-17T02:27:10.993Z,0
2018-12-17T02:28:21.034Z,0
2018-12-17T02:29:31.075Z,0
2018-12-17T02:30:41.131Z,0
2018-12-17T02:31:50.681Z,0
2018-12-17T02:33:00.755Z,0
2018-12-17T02:34:10.823Z,0
2018-12-17T02:35:20.870Z,0
2018-12-17T02:36:32.572Z,0
2018-12-17T02:37:42.609Z,0
2018-12-17T02:38:52.690Z,0
2018-12-17T02:40:02.727Z,0
2018-12-17T02:41:12.523Z,0
2018-12-17T02:42:22.575Z,0
2018-12-17T02:43:32.354Z,0
2018-12-17T02:44:42.393Z,0
2018-12-17T02:45:52.207Z,0
2018-12-17T02:47:02.275Z,0
2018-12-17T02:48:12.413Z,0
2018-12-17T02:49:22.203Z,0
2018-12-17T02:50:32.308Z,0
2018-12-17T02:51:42.367Z,0
2018-12-17T02:52:52.155Z,0
2018-12-17T02:54:02.199Z,0
2018-12-17T02:55:12.351Z,0
2018-12-17T02:56:22.401Z,0
2018-12-17T02:57:32.607Z,0
2018-12-17T02:58:48.878Z,0
2018-12-17T02:59:58.926Z,0
2018-12-17T03:01:08.979Z,0
2018-12-17T03:02:19.127Z,0
2018-12-17T03:03:29.191Z,0
2018-12-17T03:35:03.462Z,0
2018-12-17T03:36:13.260Z,0
2018-12-17T03:37:23.305Z,0
2018-12-17T03:38:33.343Z,0
2018-12-17T03:39:42.901Z,0
2018-12-17T03:40:53.186Z,0
2018-12-17T03:42:03.604Z,0
2018-12-17T03:43:13.656Z,0
2018-12-17T03:44:23.708Z,0
2018-12-17T03:45:33.527Z,0
2018-12-17T03:46:43.381Z,0
2018-12-17T03:47:53.192Z,0
2018-12-17T03:49:05.719Z,0
2018-12-17T03:50:15.534Z,0
2018-12-17T03:51:25.328Z,0
2018-12-17T03:52:35.358Z,0
2018-12-17T03:53:44.895Z,0
2018-12-17T03:54:54.683Z,0
2018-12-17T03:56:04.486Z,0
2018-12-17T03:57:14.315Z,0
2018-12-17T03:58:24.109Z,0
2018-12-17T03:59:33.903Z,0
2018-12-17T04:00:43.726Z,0
2018-12-17T04:01:53.773Z,0
2018-12-17T04:03:03.835Z,0
2018-12-17T04:04:13.955Z,0
2018-12-17T04:05:24.022Z,0
2018-12-17T04:06:34.072Z,0
2018-12-17T04:07:44.125Z,0
2018-12-17T04:08:54.193Z,0
2018-12-17T04:10:04.316Z,0
2018-12-17T04:11:14.125Z,0
2018-12-17T04:12:24.179Z,0
2018-12-17T04:13:34.230Z,0
2018-12-17T04:14:44.271Z,0
2018-12-17T04:15:54.119Z,0
2018-12-17T04:17:04.190Z,0
2018-12-17T04:18:14.244Z,0
2018-12-17T04:19:24.291Z,0
2018-12-17T04:20:34.338Z,0
2018-12-17T04:21:44.441Z,0
2018-12-17T04:22:54.486Z,0
2018-12-17T04:24:04.297Z,0
2018-12-17T04:25:14.357Z,0
2018-12-17T04:26:24.395Z,0
2018-12-17T04:27:34.194Z,0
2018-12-17T04:28:44.338Z,0
2018-12-17T04:29:54.128Z,0
2018-12-17T04:31:03.919Z,0
2018-12-17T04:32:13.706Z,0
2018-12-17T04:33:23.514Z,0
2018-12-17T04:34:33.576Z,0
2018-12-17T04:35:43.640Z,0
2018-12-17T04:36:53.698Z,0
2018-12-17T04:38:03.567Z,0
2018-12-17T04:39:13.383Z,0
2018-12-17T04:40:23.450Z,0
2018-12-17T04:41:33.496Z,0
2018-12-17T04:42:43.307Z,0
2018-12-17T04:43:52.838Z,0
2018-12-17T04:45:02.944Z,0
2018-12-17T04:46:14.216Z,0
2018-12-17T04:47:24.291Z,0
2018-12-17T04:48:34.332Z,0
2018-12-17T04:49:44.128Z,0
2018-12-17T04:50:53.658Z,0
2018-12-17T04:52:03.788Z,0
2018-12-17T04:53:13.843Z,0
2018-12-17T04:54:23.904Z,0
2018-12-17T04:55:33.700Z,0
2018-12-17T04:56:44.553Z,0
2018-12-17T04:57:54.703Z,0
2018-12-17T04:59:04.764Z,0
2018-12-17T05:00:22.202Z,0
2018-12-17T05:01:32.307Z,0
2018-12-17T05:02:42.361Z,0
2018-12-17T05:03:52.425Z,0
2018-12-17T05:05:02.484Z,0
2018-12-17T05:06:12.566Z,0
2018-12-17T05:07:22.362Z,0
2018-12-17T05:08:32.410Z,0
2018-12-17T05:09:42.188Z,0
2018-12-17T05:10:52.002Z,0
2018-12-17T05:12:02.061Z,0
2018-12-17T05:13:12.136Z,0
2018-12-17T05:14:22.224Z,0
2018-12-17T05:15:32.041Z,0
2018-12-17T05:16:42.117Z,0
2018-12-17T05:17:52.270Z,0
2018-12-17T05:19:02.046Z,0
2018-12-17T05:20:12.153Z,0
2018-12-17T05:21:21.974Z,0
2018-12-17T05:22:31.752Z,0
2018-12-17T05:23:41.282Z,0
2018-12-17T05:24:51.344Z,0
2018-12-17T05:26:00.998Z,0
2018-12-17T05:27:10.777Z,0
2018-12-17T05:28:20.833Z,0
2018-12-17T05:29:30.892Z,0
2018-12-17T05:30:40.950Z,0
2018-12-17T05:31:51.115Z,0
2018-12-17T05:33:00.674Z,0
2018-12-17T05:34:10.714Z,0
2018-12-17T05:35:20.802Z,0
2018-12-17T05:36:30.863Z,0
2018-12-17T05:37:40.904Z,0
2018-12-17T05:38:50.957Z,0
2018-12-17T05:40:01.003Z,0
2018-12-17T05:41:11.099Z,0
2018-12-17T05:42:20.914Z,0
2018-12-17T05:43:31.046Z,0
2018-12-17T05:44:41.110Z,0
2018-12-17T05:45:51.205Z,0
2018-12-17T05:47:01.018Z,0
2018-12-17T05:48:11.055Z,0
2018-12-17T05:49:20.585Z,0
2018-12-17T05:50:30.665Z,0
2018-12-17T05:51:40.725Z,0
2018-12-17T05:52:50.798Z,0
2018-12-17T05:54:00.842Z,0
2018-12-17T05:55:10.401Z,0
2018-12-17T05:56:20.448Z,0
2018-12-17T05:57:30.542Z,0
2018-12-17T05:58:40.704Z,0
2018-12-17T05:59:50.491Z,0
2018-12-17T06:01:00.550Z,0
2018-12-17T06:02:10.629Z,0
2018-12-17T06:03:20.682Z,0
2018-12-17T06:04:30.724Z,0
2018-12-17T06:05:40.270Z,0
2018-12-17T06:06:50.327Z,0
2018-12-17T06:08:00.139Z,0
2018-12-17T06:09:10.260Z,4
2018-12-17T06:10:20.060Z,4
2018-12-17T06:11:30.122Z,4
2018-12-17T06:12:39.915Z,4
2018-12-17T06:13:49.717Z,0
2018-12-17T06:14:59.759Z,4
2018-12-17T06:16:09.791Z,4
2018-12-17T06:17:19.948Z,4
2018-12-17T06:18:30.253Z,4
2018-12-17T06:19:40.296Z,8
2018-12-17T06:20:50.333Z,4
2018-12-17T06:22:00.375Z,8
2018-12-17T06:23:10.180Z,8
2018-12-17T06:24:20.238Z,8
2018-12-17T06:25:30.026Z,12
2018-12-17T06:26:40.136Z,12
2018-12-17T06:27:50.173Z,16
2018-12-17T06:29:00.309Z,20
2018-12-17T06:30:10.368Z,24
2018-12-17T06:31:20.398Z,24
2018-12-17T06:32:30.444Z,28
2018-12-17T06:33:40.486Z,32
2018-12-17T06:34:50.275Z,36
2018-12-17T06:36:00.326Z,40
2018-12-17T06:37:09.882Z,48
2018-12-17T06:38:19.937Z,48
2018-12-17T06:39:29.984Z,56
2018-12-17T06:40:39.511Z,60
2018-12-17T06:41:49.567Z,68
2018-12-17T06:42:59.630Z,72
2018-12-17T06:44:09.683Z,76
2018-12-17T06:45:19.228Z,80
2018-12-17T06:46:29.008Z,84
2018-12-17T06:47:39.055Z,88
2018-12-17T06:48:48.631Z,96
2018-12-17T06:49:58.410Z,100
2018-12-17T06:51:09.713Z,104
2018-12-17T06:52:19.754Z,112
2018-12-17T06:53:29.793Z,116
2018-12-17T06:54:39.588Z,124
2018-12-17T06:55:49.373Z,128
2018-12-17T06:56:59.477Z,136
2018-12-17T06:58:09.821Z,144
2018-12-17T06:59:19.859Z,148
2018-12-17T07:00:29.967Z,156
2018-12-17T07:01:40.008Z,164
2018-12-17T07:02:50.049Z,172
2018-12-17T07:03:59.585Z,176
2018-12-17T07:05:09.623Z,184
2018-12-17T07:06:19.714Z,188
2018-12-17T07:07:29.757Z,196
2018-12-17T07:08:39.857Z,200
2018-12-17T07:09:49.913Z,208
2018-12-17T07:10:59.973Z,212
2018-12-17T07:12:10.084Z,216
2018-12-17T07:13:19.622Z,224
2018-12-17T07:14:36.268Z,232
2018-12-17T07:15:46.750Z,240
2018-12-17T07:16:56.293Z,248
2018-12-17T07:18:06.354Z,260
2018-12-17T07:19:16.137Z,272
2018-12-17T07:20:26.185Z,288
2018-12-17T07:21:36.248Z,300
2018-12-17T07:22:45.784Z,320
2018-12-17T07:23:58.814Z,340
2018-12-17T07:25:09.938Z,364
2018-12-17T07:26:19.997Z,384
2018-12-17T07:27:30.062Z,404
2018-12-17T07:28:40.105Z,424
2018-12-17T07:29:56.961Z,456
2018-12-17T07:31:06.776Z,488
2018-12-17T07:32:16.322Z,520
2018-12-17T07:33:26.216Z,548
2018-12-17T07:34:36.265Z,560
2018-12-17T07:35:46.058Z,568
2018-12-17T07:36:56.107Z,584
2018-12-17T07:38:06.162Z,608
2018-12-17T07:39:16.206Z,644
2018-12-17T07:40:26.002Z,672
2018-12-17T07:41:36.098Z,692
2018-12-17T07:42:46.157Z,720
2018-12-17T07:43:55.967Z,744
2018-12-17T07:45:07.668Z,764
2018-12-17T07:46:17.738Z,788
2018-12-17T07:47:27.834Z,804
2018-12-17T07:48:37.647Z,828
2018-12-17T07:49:47.703Z,856
2018-12-17T07:50:57.748Z,880
2018-12-17T07:52:09.002Z,920
2018-12-17T07:53:19.079Z,940
2018-12-17T07:54:29.126Z,952
2018-12-17T07:55:39.183Z,960
2018-12-17T07:56:49.295Z,960
2018-12-17T07:57:59.341Z,964
2018-12-17T07:59:09.397Z,964
2018-12-17T08:00:19.450Z,968
2018-12-17T08:01:29.486Z,980
2018-12-17T08:02:39.280Z,996
2018-12-17T08:03:49.360Z,1000
2018-12-17T08:04:59.173Z,992
2018-12-17T08:06:09.221Z,984
2018-12-17T08:07:19.037Z,992
2018-12-17T08:08:35.127Z,1004
2018-12-17T08:09:45.370Z,996
2018-12-17T08:10:55.432Z,952
2018-12-17T08:12:06.083Z,920
2018-12-17T08:13:15.878Z,928
2018-12-17T08:14:25.930Z,944
2018-12-17T08:15:36.006Z,968
2018-12-17T08:16:45.811Z,972
2018-12-17T08:17:55.930Z,976
2018-12-17T08:19:05.977Z,996
2018-12-17T08:20:16.298Z,1016
2018-12-17T08:21:26.347Z,1032
2018-12-17T08:22:36.411Z,1056
2018-12-17T08:23:46.462Z,1080
2018-12-17T08:24:56.546Z,1088
2018-12-17T08:26:06.441Z,1100
2018-12-17T08:27:16.498Z,1108
2018-12-17T08:28:26.534Z,1100
2018-12-17T08:29:36.597Z,1128
2018-12-17T08:30:46.385Z,1204
2018-12-17T08:31:56.239Z,1240
2018-12-17T08:33:06.049Z,1260
2018-12-17T08:34:16.183Z,1348
2018-12-17T08:35:26.227Z,1396
2018-12-17T08:36:36.034Z,1364
2018-12-17T08:37:45.891Z,1348
2018-12-17T08:38:55.682Z,1388
2018-12-17T08:40:07.985Z,1500
2018-12-17T08:41:17.795Z,1552
2018-12-17T08:42:27.838Z,1572
2018-12-17T08:43:37.689Z,1600
2018-12-17T08:44:47.495Z,1640
2018-12-17T08:45:57.556Z,1660
2018-12-17T08:47:07.249Z,1676
2018-12-17T08:48:16.800Z,1684
2018-12-17T08:49:26.850Z,1664
2018-12-17T08:50:36.646Z,1604
2018-12-17T08:51:46.463Z,1556
2018-12-17T08:52:56.512Z,1528
2018-12-17T08:54:06.312Z,1540
2018-12-17T08:55:16.353Z,1556
2018-12-17T08:56:26.422Z,1580
2018-12-17T08:57:42.706Z,1568
2018-12-17T08:58:52.499Z,1536
2018-12-17T09:00:03.238Z,1540
2018-12-17T09:01:18.821Z,1548
2018-12-17T09:02:28.620Z,1544
2018-12-17T09:03:38.666Z,1516
2018-12-17T09:04:48.709Z,1516
2018-12-17T09:05:57.995Z,1552
2018-12-17T09:07:08.392Z,1548
2018-12-17T09:08:18.441Z,1516
2018-12-17T09:09:28.228Z,1512
2018-12-17T09:10:38.366Z,1540
2018-12-17T09:11:48.003Z,1576
2018-12-17T09:12:57.806Z,1580
2018-12-17T09:14:07.493Z,1592
2018-12-17T09:15:17.606Z,1660
2018-12-17T09:16:27.659Z,1740
2018-12-17T09:17:37.715Z,1736
2018-12-17T09:18:47.263Z,1788
2018-12-17T09:19:57.442Z,1832
2018-12-17T09:21:07.546Z,1848
2018-12-17T09:22:17.391Z,1860
2018-12-17T09:23:27.469Z,1864
2018-12-17T09:24:37.598Z,1896
2018-12-17T09:25:47.659Z,1924
2018-12-17T09:26:57.715Z,1952
2018-12-17T09:28:07.830Z,1992
2018-12-17T09:29:17.914Z,2016
2018-12-17T09:30:28.082Z,2128
2018-12-17T09:31:38.124Z,2212
2018-12-17T09:32:48.172Z,2200
2018-12-17T09:33:58.230Z,2252
2018-12-17T09:35:08.299Z,2276
2018-12-17T09:36:18.138Z,2248
2018-12-17T09:37:28.196Z,2144
2018-12-17T09:38:38.260Z,2152
2018-12-17T09:39:48.297Z,2228
2018-12-17T09:40:58.346Z,2192
2018-12-17T09:42:08.598Z,2176
2018-12-17T09:43:18.644Z,2156
2018-12-17T09:44:28.715Z,2172
2018-12-17T09:45:38.924Z,2224
2018-12-17T09:46:49.025Z,2368
2018-12-17T09:47:59.065Z,2548
2018-12-17T09:49:10.426Z,2676
2018-12-17T09:50:21.358Z,2680
2018-12-17T09:51:31.446Z,2628
2018-12-17T09:52:41.508Z,2608
2018-12-17T09:53:51.591Z,2636
2018-12-17T09:55:01.662Z,2796
2018-12-17T09:56:11.713Z,2716
2018-12-17T09:57:21.756Z,2616
2018-12-17T09:58:31.804Z,2560
2018-12-17T09:59:41.359Z,2500
2018-12-17T10:00:51.395Z,2572
2018-12-17T10:02:01.200Z,2724
2018-12-17T10:03:11.317Z,2720
2018-12-17T10:04:21.154Z,2736
2018-12-17T10:05:31.020Z,2788
2018-12-17T10:06:41.065Z,2600
2018-12-17T10:07:50.889Z,2768
2018-12-17T10:09:03.253Z,2920
2018-12-17T10:10:13.070Z,2740
2018-12-17T10:11:23.123Z,2568
2018-12-17T10:12:33.185Z,2572
2018-12-17T10:13:43.019Z,2772
2018-12-17T10:14:52.874Z,2924
2018-12-17T10:16:02.965Z,2960
2018-12-17T10:17:13.046Z,2848
2018-12-17T10:18:23.462Z,2860
2018-12-17T10:19:33.592Z,2828
2018-12-17T10:20:43.558Z,2760
2018-12-17T10:21:53.996Z,2652
2018-12-17T10:23:04.346Z,2536
2018-12-17T10:24:14.779Z,2692
2018-12-17T10:25:25.408Z,2704
2018-12-17T10:26:35.938Z,2748
2018-12-17T10:27:46.311Z,2820
2018-12-17T10:28:58.497Z,2876
2018-12-17T10:30:23.460Z,2824
2018-12-17T10:32:01.215Z,2856
2018-12-17T10:33:35.607Z,2860
2018-12-17T10:35:03.031Z,2640
2018-12-17T10:36:27.224Z,2464
2018-12-17T10:37:56.018Z,2608
2018-12-17T10:39:20.086Z,2800
2018-12-17T10:40:43.670Z,2748
2018-12-17T10:42:09.473Z,2740
2018-12-17T10:43:37.913Z,2768
2018-12-17T10:45:11.723Z,2720
2018-12-17T10:46:28.425Z,2552
2018-12-17T10:47:38.474Z,2584
2018-12-17T10:48:48.618Z,2536
2018-12-17T10:49:58.774Z,2436
2018-12-17T10:51:08.611Z,2524
2018-12-17T10:52:18.739Z,2572
2018-12-17T10:53:28.874Z,2592
2018-12-17T10:54:38.693Z,2468
2018-12-17T10:55:48.742Z,2356
2018-12-17T10:56:58.800Z,2460
2018-12-17T10:58:10.532Z,2564
2018-12-17T10:59:20.618Z,2616
2018-12-17T11:00:30.451Z,2628
2018-12-17T11:01:47.144Z,2560
2018-12-17T11:02:57.211Z,2492
2018-12-17T11:04:07.081Z,2500
2018-12-17T11:05:17.164Z,2496
2018-12-17T11:06:27.245Z,2476
2018-12-17T11:07:37.325Z,2476
2018-12-17T11:08:47.400Z,2524
2018-12-17T11:09:57.481Z,2496
2018-12-17T11:11:07.616Z,2424
2018-12-17T11:12:17.699Z,2452
2018-12-17T11:13:27.529Z,2436
2018-12-17T11:14:37.664Z,2380
2018-12-17T11:15:47.779Z,2416
2018-12-17T11:16:57.892Z,2392
2018-12-17T11:18:08.517Z,2348
2018-12-17T11:19:18.054Z,2328
2018-12-17T11:20:27.910Z,2320
2018-12-17T11:21:38.072Z,2336
2018-12-17T11:22:47.867Z,2324
2018-12-17T11:23:58.164Z,2288
2018-12-17T11:25:08.269Z,2336
2018-12-17T11:26:18.103Z,2396
2018-12-17T11:27:27.962Z,2332
2018-12-17T11:28:38.037Z,2236
2018-12-17T11:29:48.083Z,2216
2018-12-17T11:30:58.135Z,2148
2018-12-17T11:32:13.820Z,2076
2018-12-17T11:33:23.985Z,2092
2018-12-17T11:34:33.794Z,2104
2018-12-17T11:35:43.853Z,2144
2018-12-17T11:36:53.665Z,2212
2018-12-17T11:38:05.873Z,2284
2018-12-17T11:39:15.734Z,2228
2018-12-17T11:40:25.780Z,2160
2018-12-17T11:41:35.583Z,2168
2018-12-17T11:42:45.384Z,2200
2018-12-17T11:43:55.443Z,2156
2018-12-17T11:45:05.539Z,2180
2018-12-17T11:46:15.622Z,2200
2018-12-17T11:47:25.698Z,2256
2018-12-17T11:48:35.507Z,2316
2018-12-17T11:49:45.571Z,2324
2018-12-17T11:50:55.706Z,2340
2018-12-17T11:52:06.166Z,2276
2018-12-17T11:53:15.974Z,2232
2018-12-17T11:54:26.056Z,2292
2018-12-17T11:55:36.109Z,2332
2018-12-17T11:56:46.177Z,2356
2018-12-17T11:57:56.237Z,2340
2018-12-17T11:59:06.305Z,2260
2018-12-17T12:00:16.653Z,2228
2018-12-17T12:01:26.733Z,2204
2018-12-17T12:02:36.866Z,2188
2018-12-17T12:03:46.685Z,2160
2018-12-17T12:04:56.738Z,2104
2018-12-17T12:06:13.615Z,2096
2018-12-17T12:07:23.736Z,2108
2018-12-17T12:08:33.917Z,2096
2018-12-17T12:09:44.002Z,2056
2018-12-17T12:10:54.331Z,2056
2018-12-17T12:12:04.616Z,2072
2018-12-17T12:13:14.741Z,2072
2018-12-17T12:14:24.810Z,2144
2018-12-17T12:15:34.662Z,2204
2018-12-17T12:16:44.716Z,2244
2018-12-17T12:17:54.760Z,2268
2018-12-17T12:19:04.836Z,2296
2018-12-17T12:20:14.987Z,2304
2018-12-17T12:21:24.805Z,2288
2018-12-17T12:22:35.213Z,2280
2018-12-17T12:23:45.022Z,2288
2018-12-17T12:24:55.205Z,2300
2018-12-17T12:26:05.770Z,2292
2018-12-17T12:27:15.835Z,2296
2018-12-17T12:28:25.909Z,2296
2018-12-17T12:29:36.003Z,2300
2018-12-17T12:30:45.811Z,2328
2018-12-17T12:31:55.876Z,2312
2018-12-17T12:33:06.229Z,2280
2018-12-17T12:34:16.277Z,2244
2018-12-17T12:35:26.361Z,2204
2018-12-17T12:36:36.464Z,2172
2018-12-17T12:37:46.797Z,2144
2018-12-17T12:38:56.870Z,2104
2018-12-17T12:40:06.971Z,2036
2018-12-17T12:41:17.057Z,1984
2018-12-17T12:42:26.883Z,1964
2018-12-17T12:43:36.958Z,1964
2018-12-17T12:44:47.223Z,1956
2018-12-17T12:45:57.280Z,1956
2018-12-17T12:47:07.489Z,1928
2018-12-17T12:48:17.564Z,1892
2018-12-17T12:49:27.709Z,1880
2018-12-17T12:50:37.348Z,1896
2018-12-17T12:51:47.405Z,1920
2018-12-17T12:52:57.444Z,1960
2018-12-17T12:54:07.459Z,1980
2018-12-17T12:55:17.537Z,1956
2018-12-17T12:56:27.597Z,1896
2018-12-17T12:57:37.518Z,1808
2018-12-17T12:58:47.583Z,1760
2018-12-17T12:59:57.667Z,1780
2018-12-17T13:01:14.474Z,1844
2018-12-17T13:02:24.809Z,1872
2018-12-17T13:03:34.881Z,1860
2018-12-17T13:04:44.949Z,1820
2018-12-17T13:05:55.048Z,1752
2018-12-17T13:07:06.140Z,1672
2018-12-17T13:08:16.243Z,1604
2018-12-17T13:09:26.314Z,1556
2018-12-17T13:10:36.386Z,1508
2018-12-17T13:11:46.700Z,1468
2018-12-17T13:12:56.812Z,1424
2018-12-17T13:14:06.902Z,1408
2018-12-17T13:15:16.985Z,1436
2018-12-17T13:16:27.057Z,1484
2018-12-17T13:17:36.880Z,1516
2018-12-17T13:18:46.749Z,1524
2018-12-17T13:19:56.843Z,1504
2018-12-17T13:21:06.658Z,1508
2018-12-17T13:22:16.738Z,1520
2018-12-17T13:23:26.838Z,1500
2018-12-17T13:24:36.911Z,1448
2018-12-17T13:25:47.039Z,1380
2018-12-17T13:26:57.110Z,1332
2018-12-17T13:28:07.869Z,1332
2018-12-17T13:29:17.933Z,1332
2018-12-17T13:30:27.741Z,1288
2018-12-17T13:31:37.916Z,1240
2018-12-17T13:32:48.018Z,1168
2018-12-17T13:33:58.063Z,1108
2018-12-17T13:35:07.870Z,1076
2018-12-17T13:36:19.584Z,1048
2018-12-17T13:37:29.655Z,996
2018-12-17T13:38:39.716Z,956
2018-12-17T13:39:49.557Z,924
2018-12-17T13:40:59.633Z,900
2018-12-17T13:42:09.750Z,860
2018-12-17T13:43:19.799Z,828
2018-12-17T13:44:29.865Z,796
2018-12-17T13:45:39.672Z,760
2018-12-17T13:46:49.737Z,740
2018-12-17T13:47:59.793Z,708
2018-12-17T13:49:11.055Z,680
2018-12-17T13:50:20.932Z,664
2018-12-17T13:51:37.640Z,640
2018-12-17T13:52:47.459Z,612
2018-12-17T13:53:57.610Z,588
2018-12-17T13:55:07.669Z,568
2018-12-17T13:56:17.222Z,564
2018-12-17T13:57:27.274Z,556
2018-12-17T13:58:37.065Z,540
2018-12-17T13:59:46.867Z,524
2018-12-17T14:00:56.946Z,508
2018-12-17T14:02:07.024Z,488
2018-12-17T14:03:17.085Z,464
2018-12-17T14:04:27.138Z,436
2018-12-17T14:05:37.217Z,408
2018-12-17T14:06:47.248Z,396
2018-12-17T14:07:57.043Z,384
2018-12-17T14:09:06.862Z,368
2018-12-17T14:10:16.911Z,352
2018-12-17T14:11:26.727Z,344
2018-12-17T14:12:36.794Z,336
2018-12-17T14:13:46.845Z,336
2018-12-17T14:14:56.633Z,336
2018-12-17T14:16:06.431Z,336
2018-12-17T14:17:16.493Z,324
2018-12-17T14:18:26.329Z,312
2018-12-17T14:19:36.451Z,308
2018-12-17T14:20:46.537Z,296
2018-12-17T14:21:56.612Z,284
2018-12-17T14:23:07.515Z,268
2018-12-17T14:24:17.556Z,264
2018-12-17T14:25:27.639Z,252
2018-12-17T14:26:37.447Z,244
2018-12-17T14:27:47.489Z,244
2018-12-17T14:28:57.542Z,240
2018-12-17T14:30:07.393Z,240
2018-12-17T14:31:17.446Z,244
2018-12-17T14:32:27.263Z,232
2018-12-17T14:33:37.348Z,208
2018-12-17T14:34:47.469Z,196
2018-12-17T14:35:57.254Z,188
2018-12-17T14:37:07.063Z,176
2018-12-17T14:38:17.134Z,172
2018-12-17T14:39:27.242Z,172
2018-12-17T14:40:37.316Z,172
2018-12-17T14:41:47.378Z,168
2018-12-17T14:42:57.474Z,164
2018-12-17T14:44:07.536Z,156
2018-12-17T14:45:17.616Z,148
2018-12-17T14:46:27.736Z,140
2018-12-17T14:47:37.784Z,128
2018-12-17T14:48:49.127Z,120
2018-12-17T14:50:00.153Z,112
2018-12-17T14:51:11.511Z,104
2018-12-17T14:52:22.655Z,96
2018-12-17T14:53:32.707Z,84
2018-12-17T14:54:42.880Z,76
2018-12-17T14:55:52.768Z,72
2018-12-17T14:57:02.886Z,64
2018-12-17T14:58:13.018Z,64
2018-12-17T14:59:23.159Z,56
2018-12-17T15:00:33.253Z,52
2018-12-17T15:01:43.439Z,48
2018-12-17T15:02:53.609Z,44
2018-12-17T15:04:03.402Z,44
2018-12-17T15:05:13.219Z,40
2018-12-17T15:06:23.286Z,36
2018-12-17T15:07:35.134Z,32
2018-12-17T15:08:45.201Z,28
2018-12-17T15:09:55.298Z,24
2018-12-17T15:11:05.365Z,24
2018-12-17T15:12:15.436Z,16
2018-12-17T15:13:25.511Z,16
2018-12-17T15:14:35.814Z,12
2018-12-17T15:15:45.871Z,12
2018-12-17T15:16:55.956Z,8
2018-12-17T15:18:06.040Z,8
2018-12-17T15:19:16.417Z,8
2018-12-17T15:20:26.251Z,8
2018-12-17T15:21:36.356Z,4
2018-12-17T15:22:46.398Z,8
2018-12-17T15:23:56.570Z,4
2018-12-17T15:25:06.418Z,4
2018-12-17T15:26:16.290Z,4
2018-12-17T15:27:26.449Z,4
2018-12-17T15:28:36.365Z,0
2018-12-17T15:29:46.324Z,0
2018-12-17T15:30:56.488Z,4
2018-12-17T15:32:06.417Z,4
2018-12-17T15:33:16.489Z,4
2018-12-17T15:34:26.545Z,0
2018-12-17T15:35:36.612Z,0
2018-12-17T15:36:47.928Z,0
2018-12-17T15:37:57.997Z,0
2018-12-17T15:39:08.107Z,0
2018-12-17T15:40:18.194Z,0
2018-12-17T15:41:28.272Z,0
2018-12-17T15:42:45.531Z,0
2018-12-17T15:43:55.585Z,0
2018-12-17T15:45:05.720Z,0
2018-12-17T15:46:15.804Z,0
2018-12-17T15:47:25.884Z,0
2018-12-17T15:48:35.685Z,0
2018-12-17T15:49:45.766Z,0
2018-12-17T15:50:55.833Z,0
2018-12-17T15:52:05.912Z,0
2018-12-17T15:53:15.997Z,0
2018-12-17T15:54:26.074Z,0
2018-12-17T15:55:36.125Z,0
2018-12-17T15:56:46.340Z,0
2018-12-17T15:57:56.465Z,0
2018-12-17T15:59:06.281Z,0
2018-12-17T16:00:16.079Z,0
2018-12-17T16:01:25.899Z,0
2018-12-17T16:02:35.986Z,0
2018-12-17T16:03:46.296Z,0
2018-12-17T16:04:56.385Z,0
2018-12-17T16:06:06.498Z,0
2018-12-17T16:07:16.572Z,0
2018-12-17T16:08:26.661Z,0
2018-12-17T16:09:36.738Z,0
2018-12-17T16:10:46.595Z,0
2018-12-17T16:11:56.662Z,0
2018-12-17T16:13:06.456Z,0
2018-12-17T16:14:16.526Z,0
2018-12-17T16:15:26.593Z,0
2018-12-17T16:16:36.657Z,0
2018-12-17T16:17:46.726Z,0
2018-12-17T16:18:56.827Z,0
2018-12-17T16:20:08.175Z,0
2018-12-17T16:21:18.041Z,0
2018-12-17T16:22:28.101Z,0
2018-12-17T16:23:37.901Z,0
2018-12-17T16:24:47.987Z,0
2018-12-17T16:25:57.808Z,0
2018-12-17T16:27:10.211Z,0
2018-12-17T16:28:27.174Z,0
2018-12-17T16:29:37.477Z,0
2018-12-17T16:30:47.308Z,0
2018-12-17T16:32:04.519Z,0
2018-12-17T16:33:14.623Z,0
2018-12-17T16:34:24.679Z,0
2018-12-17T16:35:34.746Z,0
2018-12-17T16:36:44.867Z,0
2018-12-17T16:37:54.920Z,0
2018-12-17T16:39:04.488Z,0
2018-12-17T16:40:14.623Z,0
2018-12-17T16:41:24.700Z,0
2018-12-17T16:42:34.868Z,0
2018-12-17T16:43:45.211Z,0
2018-12-17T16:44:55.030Z,0
2018-12-17T16:46:06.186Z,0
2018-12-17T16:47:16.000Z,0
2018-12-17T16:48:26.123Z,0
2018-12-17T16:49:36.197Z,0
2018-12-17T16:50:46.300Z,0
2018-12-17T16:51:56.366Z,0
2018-12-17T16:53:06.443Z,0
2018-12-17T16:54:16.632Z,0
2018-12-17T16:55:26.452Z,0
2018-12-17T16:56:36.734Z,0
2018-12-17T16:57:46.875Z,0
2018-12-17T16:58:56.801Z,0
2018-12-17T17:00:06.965Z,0
2018-12-17T17:01:17.061Z,0
2018-12-17T17:02:27.399Z,0